createdAt,value
2022-09-30T00:00:03.519Z,12.40
2022-09-30T00:00:13.601Z,12.50
2022-09-30T00:00:23.757Z,12.40
2022-09-30T00:00:33.799Z,12.20
2022-09-30T00:00:43.871Z,11.90
2022-09-30T00:00:53.932Z,12.10
2022-09-30T00:01:03.988Z,12.00
2022-09-30T00:01:14.057Z,12.00
2022-09-30T00:01:24.161Z,12.10
2022-09-30T00:01:34.257Z,12.30
2022-09-30T00:01:44.446Z,13.40
2022-09-30T00:01:54.509Z,13.10
2022-09-30T00:02:04.643Z,12.80
2022-09-30T00:02:14.646Z,11.80
2022-09-30T00:02:24.710Z,12.20
2022-09-30T00:02:34.805Z,12.60
2022-09-30T00:02:44.960Z,12.90
2022-09-30T00:02:55.057Z,13.00
2022-09-30T00:03:05.205Z,13.10
2022-09-30T00:03:15.206Z,13.30
2022-09-30T00:03:25.337Z,13.40
2022-09-30T00:03:35.388Z,12.80
2022-09-30T00:03:45.477Z,12.60
2022-09-30T00:03:55.555Z,12.40
2022-09-30T00:04:05.629Z,12.60
2022-09-30T00:04:15.840Z,12.90
2022-09-30T00:04:25.788Z,12.80
2022-09-30T00:04:35.858Z,12.90
2022-09-30T00:04:45.948Z,12.50
2022-09-30T00:04:55.998Z,12.70
2022-09-30T00:05:06.042Z,12.80
2022-09-30T00:05:16.078Z,13.20
2022-09-30T00:05:26.140Z,13.10
2022-09-30T00:05:36.198Z,12.90
2022-09-30T00:05:46.257Z,12.80
2022-09-30T00:05:56.298Z,12.70
2022-09-30T00:06:08.734Z,12.50
2022-09-30T00:06:16.438Z,11.90
2022-09-30T00:06:26.491Z,12.50
2022-09-30T00:06:36.540Z,12.70
2022-09-30T00:06:46.602Z,13.50
2022-09-30T00:06:56.679Z,13.10
2022-09-30T00:07:06.819Z,13.30
2022-09-30T00:07:16.868Z,12.90
2022-09-30T00:07:26.949Z,12.80
2022-09-30T00:07:37.139Z,12.50
2022-09-30T00:07:47.197Z,12.00
2022-09-30T00:07:57.290Z,11.80
2022-09-30T00:08:07.392Z,12.30
2022-09-30T00:08:17.531Z,12.70
2022-09-30T00:08:27.692Z,12.50
2022-09-30T00:08:37.766Z,12.20
2022-09-30T00:08:47.902Z,12.50
2022-09-30T00:08:58.057Z,13.10
2022-09-30T00:09:08.190Z,13.20
2022-09-30T00:09:18.383Z,13.20
2022-09-30T00:09:28.509Z,12.80
2022-09-30T00:09:38.645Z,12.80
2022-09-30T00:09:48.640Z,12.50
2022-09-30T00:09:58.787Z,13.20
2022-09-30T00:10:08.838Z,13.00
2022-09-30T00:10:18.919Z,12.90
2022-09-30T00:10:28.999Z,12.60
2022-09-30T00:10:39.087Z,12.30
2022-09-30T00:10:49.140Z,13.10
2022-09-30T00:10:59.199Z,12.70
2022-09-30T00:11:09.269Z,13.30
2022-09-30T00:11:19.339Z,12.70
2022-09-30T00:11:29.428Z,12.70
2022-09-30T00:11:39.488Z,12.80
2022-09-30T00:11:49.569Z,13.00
2022-09-30T00:11:59.619Z,13.10
2022-09-30T00:12:09.687Z,12.70
2022-09-30T00:12:19.747Z,12.40
2022-09-30T00:12:29.814Z,12.90
2022-09-30T00:12:39.885Z,13.10
2022-09-30T00:12:49.948Z,13.40
2022-09-30T00:13:00.027Z,13.10
2022-09-30T00:13:10.098Z,12.60
2022-09-30T00:13:20.170Z,12.20
2022-09-30T00:13:30.230Z,12.40
2022-09-30T00:13:40.288Z,12.70
2022-09-30T00:13:50.368Z,13.00
2022-09-30T00:14:00.428Z,12.80
2022-09-30T00:14:10.517Z,12.70
2022-09-30T00:14:20.577Z,12.30
2022-09-30T00:14:30.635Z,12.30
2022-09-30T00:14:40.746Z,12.70
2022-09-30T00:14:50.808Z,13.20
2022-09-30T00:15:00.868Z,13.30
2022-09-30T00:15:10.987Z,13.00
2022-09-30T00:15:21.048Z,12.70
2022-09-30T00:15:31.117Z,12.40
2022-09-30T00:15:41.169Z,12.90
2022-09-30T00:15:51.248Z,12.80
2022-09-30T00:16:01.368Z,13.00
2022-09-30T00:16:11.494Z,12.90
2022-09-30T00:16:21.631Z,13.20
2022-09-30T00:16:31.777Z,13.40
2022-09-30T00:16:41.844Z,13.50
2022-09-30T00:16:51.932Z,13.60
2022-09-30T00:17:01.974Z,13.30
2022-09-30T00:17:12.035Z,12.50
2022-09-30T00:17:22.108Z,12.90
2022-09-30T00:17:32.169Z,12.90
2022-09-30T00:17:42.280Z,13.60
2022-09-30T00:17:52.339Z,13.30
2022-09-30T00:18:02.418Z,13.40
2022-09-30T00:18:12.479Z,13.40
2022-09-30T00:18:22.547Z,13.30
2022-09-30T00:18:32.617Z,13.40
2022-09-30T00:18:42.674Z,13.00
2022-09-30T00:18:52.739Z,12.80
2022-09-30T00:19:02.808Z,12.50
2022-09-30T00:19:12.885Z,12.70
2022-09-30T00:19:22.991Z,12.70
2022-09-30T00:19:33.055Z,13.10
2022-09-30T00:19:43.125Z,13.30
2022-09-30T00:19:53.191Z,13.50
2022-09-30T00:20:03.277Z,13.30
2022-09-30T00:20:13.347Z,13.40
2022-09-30T00:20:23.406Z,13.50
2022-09-30T00:20:33.468Z,13.60
2022-09-30T00:20:43.539Z,13.00
2022-09-30T00:20:53.567Z,12.40
2022-09-30T00:21:03.629Z,12.50
2022-09-30T00:21:13.706Z,12.70
2022-09-30T00:21:23.767Z,12.60
2022-09-30T00:21:33.819Z,13.00
2022-09-30T00:21:43.867Z,12.90
2022-09-30T00:21:53.924Z,12.90
2022-09-30T00:22:03.984Z,12.90
2022-09-30T00:22:14.044Z,12.80
2022-09-30T00:22:24.095Z,13.00
2022-09-30T00:22:34.147Z,13.00
2022-09-30T00:22:44.246Z,13.00
2022-09-30T00:22:54.298Z,13.10
2022-09-30T00:23:04.336Z,13.00
2022-09-30T00:23:14.431Z,12.90
2022-09-30T00:23:24.501Z,13.10
2022-09-30T00:23:34.568Z,12.80
2022-09-30T00:23:44.636Z,13.00
2022-09-30T00:23:54.722Z,13.10
2022-09-30T00:24:04.820Z,13.10
2022-09-30T00:24:15.035Z,12.90
2022-09-30T00:24:24.946Z,12.50
2022-09-30T00:24:35.015Z,12.80
2022-09-30T00:24:45.067Z,12.80
2022-09-30T00:24:55.118Z,12.80
2022-09-30T00:25:05.171Z,12.50
2022-09-30T00:25:15.246Z,12.60
2022-09-30T00:25:25.296Z,12.70
2022-09-30T00:25:35.346Z,12.90
2022-09-30T00:25:45.397Z,13.20
2022-09-30T00:25:55.458Z,13.20
2022-09-30T00:26:05.511Z,13.60
2022-09-30T00:26:15.576Z,13.80
2022-09-30T00:26:25.628Z,13.50
2022-09-30T00:26:35.687Z,12.90
2022-09-30T00:26:45.747Z,12.40
2022-09-30T00:26:55.814Z,12.80
2022-09-30T00:27:05.855Z,13.40
2022-09-30T00:27:15.917Z,14.00
2022-09-30T00:27:25.974Z,14.00
2022-09-30T00:27:36.025Z,13.70
2022-09-30T00:27:46.083Z,13.90
2022-09-30T00:27:56.181Z,13.80
2022-09-30T00:28:06.238Z,13.90
2022-09-30T00:28:16.306Z,13.40
2022-09-30T00:28:26.376Z,13.20
2022-09-30T00:28:36.478Z,12.90
2022-09-30T00:28:46.530Z,12.90
2022-09-30T00:28:56.606Z,13.10
2022-09-30T00:29:06.667Z,13.30
2022-09-30T00:29:16.755Z,13.40
2022-09-30T00:29:26.794Z,13.40
2022-09-30T00:29:36.884Z,13.30
2022-09-30T00:29:46.936Z,13.00
2022-09-30T00:29:57.074Z,13.20
2022-09-30T00:30:07.136Z,12.90
2022-09-30T00:30:17.207Z,12.60
2022-09-30T00:30:27.269Z,12.60
2022-09-30T00:30:37.327Z,12.80
2022-09-30T00:30:47.387Z,13.30
2022-09-30T00:30:57.452Z,13.00
2022-09-30T00:31:07.576Z,13.20
2022-09-30T00:31:17.697Z,13.50
2022-09-30T00:31:27.749Z,14.10
2022-09-30T00:31:37.718Z,14.10
2022-09-30T00:31:47.782Z,13.90
2022-09-30T00:31:57.932Z,13.00
2022-09-30T00:32:07.987Z,12.70
2022-09-30T00:32:18.045Z,12.60
2022-09-30T00:32:28.101Z,13.20
2022-09-30T00:32:38.154Z,13.60
2022-09-30T00:32:48.215Z,13.20
2022-09-30T00:32:58.274Z,12.90
2022-09-30T00:33:08.316Z,12.50
2022-09-30T00:33:18.395Z,12.60
2022-09-30T00:33:28.478Z,12.60
2022-09-30T00:33:38.563Z,12.60
2022-09-30T00:33:48.657Z,12.50
2022-09-30T00:33:58.707Z,13.10
2022-09-30T00:34:09.100Z,13.70
2022-09-30T00:34:18.903Z,14.00
2022-09-30T00:34:28.946Z,13.70
2022-09-30T00:34:38.994Z,13.60
2022-09-30T00:34:49.085Z,13.90
2022-09-30T00:34:59.136Z,13.40
2022-09-30T00:35:09.185Z,13.00
2022-09-30T00:35:22.440Z,12.40
2022-09-30T00:35:29.287Z,13.40
2022-09-30T00:35:39.347Z,13.20
2022-09-30T00:35:49.406Z,13.30
2022-09-30T00:35:59.477Z,12.80
2022-09-30T00:36:09.546Z,13.00
2022-09-30T00:36:19.596Z,13.10
2022-09-30T00:36:29.646Z,12.70
2022-09-30T00:36:39.707Z,12.60
2022-09-30T00:36:49.747Z,12.40
2022-09-30T00:36:59.838Z,12.40
2022-09-30T00:37:09.907Z,13.20
2022-09-30T00:37:19.956Z,13.00
2022-09-30T00:37:29.997Z,12.50
2022-09-30T00:37:40.046Z,12.10
2022-09-30T00:37:50.115Z,12.40
2022-09-30T00:38:00.167Z,13.00
2022-09-30T00:38:10.252Z,12.70
2022-09-30T00:38:20.322Z,12.80
2022-09-30T00:38:30.382Z,12.60
2022-09-30T00:38:40.435Z,12.70
2022-09-30T00:38:50.553Z,12.50
2022-09-30T00:39:00.629Z,12.80
2022-09-30T00:39:10.693Z,12.50
2022-09-30T00:39:20.852Z,12.10
2022-09-30T00:39:30.817Z,12.00
2022-09-30T00:39:40.915Z,12.30
2022-09-30T00:39:50.976Z,12.40
2022-09-30T00:40:01.052Z,12.40
2022-09-30T00:40:11.135Z,12.50
2022-09-30T00:40:21.225Z,12.90
2022-09-30T00:40:31.298Z,13.10
2022-09-30T00:40:41.505Z,12.50
2022-09-30T00:40:51.545Z,12.20
2022-09-30T00:41:01.607Z,12.10
2022-09-30T00:41:11.646Z,12.10
2022-09-30T00:41:21.705Z,11.90
2022-09-30T00:41:31.796Z,11.80
2022-09-30T00:41:41.845Z,11.90
2022-09-30T00:41:51.885Z,12.20
2022-09-30T00:42:01.935Z,12.30
2022-09-30T00:42:11.996Z,12.60
2022-09-30T00:42:22.047Z,12.50
2022-09-30T00:42:32.095Z,12.80
2022-09-30T00:42:42.183Z,12.60
2022-09-30T00:42:52.263Z,13.20
2022-09-30T00:43:02.322Z,12.70
2022-09-30T00:43:12.387Z,12.20
2022-09-30T00:43:22.422Z,12.10
2022-09-30T00:43:32.505Z,13.00
2022-09-30T00:43:42.544Z,13.60
2022-09-30T00:43:52.619Z,13.70
2022-09-30T00:44:02.659Z,13.40
2022-09-30T00:44:12.687Z,12.70
2022-09-30T00:44:22.743Z,12.50
2022-09-30T00:44:32.773Z,12.50
2022-09-30T00:44:42.824Z,13.00
2022-09-30T00:44:52.875Z,12.50
2022-09-30T00:45:02.937Z,12.60
2022-09-30T00:45:12.994Z,12.50
2022-09-30T00:45:23.025Z,12.90
2022-09-30T00:45:33.107Z,12.80
2022-09-30T00:45:43.141Z,13.10
2022-09-30T00:45:53.184Z,13.60
2022-09-30T00:46:03.218Z,13.20
2022-09-30T00:46:13.274Z,12.90
2022-09-30T00:46:23.346Z,12.60
2022-09-30T00:46:33.411Z,12.80
2022-09-30T00:46:44.997Z,12.90
2022-09-30T00:46:53.655Z,13.30
2022-09-30T00:47:03.703Z,14.00
2022-09-30T00:47:13.784Z,13.90
2022-09-30T00:47:23.816Z,13.80
2022-09-30T00:47:33.855Z,13.20
2022-09-30T00:47:43.935Z,12.90
2022-09-30T00:47:53.985Z,12.70
2022-09-30T00:48:04.025Z,13.10
2022-09-30T00:48:14.080Z,13.90
2022-09-30T00:48:24.114Z,14.10
2022-09-30T00:48:34.166Z,14.50
2022-09-30T00:48:44.205Z,14.20
2022-09-30T00:48:54.253Z,13.90
2022-09-30T00:49:04.293Z,13.70
2022-09-30T00:49:14.325Z,13.70
2022-09-30T00:49:24.362Z,13.50
2022-09-30T00:49:34.415Z,13.70
2022-09-30T00:49:44.465Z,13.50
2022-09-30T00:49:54.523Z,13.50
2022-09-30T00:50:04.571Z,13.70
2022-09-30T00:50:14.614Z,13.70
2022-09-30T00:50:24.674Z,14.00
2022-09-30T00:50:34.734Z,14.00
2022-09-30T00:50:44.794Z,14.30
2022-09-30T00:50:54.832Z,14.60
2022-09-30T00:51:04.890Z,14.90
2022-09-30T00:51:14.956Z,15.60
2022-09-30T00:51:25.006Z,15.70
2022-09-30T00:51:35.055Z,15.00
2022-09-30T00:51:45.105Z,14.60
2022-09-30T00:51:55.165Z,14.70
2022-09-30T00:52:05.233Z,14.80
2022-09-30T00:52:15.293Z,14.30
2022-09-30T00:52:25.353Z,14.40
2022-09-30T00:52:35.425Z,14.40
2022-09-30T00:52:45.474Z,14.50
2022-09-30T00:52:55.518Z,14.30
2022-09-30T00:53:05.624Z,14.50
2022-09-30T00:53:15.678Z,14.90
2022-09-30T00:53:25.732Z,14.50
2022-09-30T00:53:35.784Z,13.40
2022-09-30T00:53:45.875Z,13.10
2022-09-30T00:53:55.925Z,13.50
2022-09-30T00:54:05.984Z,14.10
2022-09-30T00:54:16.064Z,13.90
2022-09-30T00:54:26.063Z,13.40
2022-09-30T00:54:36.158Z,13.60
2022-09-30T00:54:46.226Z,13.80
2022-09-30T00:54:56.279Z,14.20
2022-09-30T00:55:06.344Z,14.60
2022-09-30T00:55:16.394Z,14.70
2022-09-30T00:55:26.452Z,14.70
2022-09-30T00:55:36.515Z,14.60
2022-09-30T00:55:46.560Z,14.80
2022-09-30T00:55:56.623Z,15.60
2022-09-30T00:56:06.673Z,15.20
2022-09-30T00:56:16.754Z,15.30
2022-09-30T00:56:26.806Z,14.80
2022-09-30T00:56:36.868Z,14.80
2022-09-30T00:56:46.934Z,14.40
2022-09-30T00:56:57.004Z,14.10
2022-09-30T00:57:07.095Z,14.60
2022-09-30T00:57:17.174Z,15.20
2022-09-30T00:57:27.243Z,15.40
2022-09-30T00:57:37.293Z,15.50
2022-09-30T00:57:47.353Z,14.60
2022-09-30T00:57:57.404Z,14.50
2022-09-30T00:58:07.474Z,14.40
2022-09-30T00:58:17.527Z,14.50
2022-09-30T00:58:27.594Z,14.20
2022-09-30T00:58:37.663Z,13.80
2022-09-30T00:58:47.714Z,13.80
2022-09-30T00:58:57.770Z,13.90
2022-09-30T00:59:07.862Z,14.00
2022-09-30T00:59:17.947Z,13.80
2022-09-30T00:59:27.966Z,13.50
2022-09-30T00:59:38.065Z,13.60
2022-09-30T00:59:48.147Z,13.90
2022-09-30T00:59:58.221Z,14.20
2022-09-30T01:00:08.276Z,13.90
2022-09-30T01:00:18.342Z,13.30
2022-09-30T01:00:28.451Z,13.00
2022-09-30T01:00:38.633Z,13.10
2022-09-30T01:00:48.741Z,13.40
2022-09-30T01:00:58.846Z,13.60
2022-09-30T01:01:08.975Z,13.40
2022-09-30T01:01:19.012Z,13.20
2022-09-30T01:01:29.094Z,13.20
2022-09-30T01:01:39.230Z,13.30
2022-09-30T01:01:49.386Z,13.70
2022-09-30T01:01:59.480Z,13.50
2022-09-30T01:02:09.619Z,13.70
2022-09-30T01:02:19.729Z,13.70
2022-09-30T01:02:29.849Z,13.70
2022-09-30T01:02:39.893Z,13.90
2022-09-30T01:02:49.993Z,14.00
2022-09-30T01:03:00.048Z,14.70
2022-09-30T01:03:10.173Z,14.10
2022-09-30T01:03:20.217Z,13.50
2022-09-30T01:03:30.264Z,13.10
2022-09-30T01:03:40.304Z,13.20
2022-09-30T01:03:50.356Z,13.50
2022-09-30T01:04:00.413Z,13.60
2022-09-30T01:04:10.465Z,13.90
2022-09-30T01:04:20.520Z,13.50
2022-09-30T01:04:30.594Z,12.90
2022-09-30T01:04:40.654Z,12.50
2022-09-30T01:04:50.700Z,13.00
2022-09-30T01:05:00.748Z,13.00
2022-09-30T01:05:10.815Z,12.40
2022-09-30T01:05:20.873Z,12.10
2022-09-30T01:05:30.929Z,12.10
2022-09-30T01:05:41.006Z,13.00
2022-09-30T01:05:51.053Z,13.10
2022-09-30T01:06:01.123Z,13.20
2022-09-30T01:06:11.174Z,12.90
2022-09-30T01:06:21.230Z,13.00
2022-09-30T01:06:31.300Z,12.70
2022-09-30T01:06:41.353Z,12.80
2022-09-30T01:06:51.421Z,12.80
2022-09-30T01:07:01.481Z,12.90
2022-09-30T01:07:11.533Z,12.20
2022-09-30T01:07:21.584Z,12.00
2022-09-30T01:07:31.653Z,11.40
2022-09-30T01:07:41.713Z,11.70
2022-09-30T01:07:51.764Z,11.60
2022-09-30T01:08:01.822Z,11.90
2022-09-30T01:08:11.891Z,11.30
2022-09-30T01:08:21.966Z,11.40
2022-09-30T01:08:32.011Z,11.80
2022-09-30T01:08:42.053Z,12.10
2022-09-30T01:08:52.107Z,12.40
2022-09-30T01:09:02.194Z,12.10
2022-09-30T01:09:12.268Z,12.90
2022-09-30T01:09:22.554Z,12.20
2022-09-30T01:09:32.452Z,12.40
2022-09-30T01:09:42.633Z,11.60
2022-09-30T01:09:52.691Z,12.10
2022-09-30T01:10:02.743Z,12.30
2022-09-30T01:10:12.773Z,12.00
2022-09-30T01:10:22.846Z,11.30
2022-09-30T01:10:32.889Z,11.30
2022-09-30T01:10:42.941Z,11.90
2022-09-30T01:10:52.982Z,12.40
2022-09-30T01:11:07.871Z,12.20
2022-09-30T01:11:13.176Z,12.00
2022-09-30T01:11:23.274Z,12.50
2022-09-30T01:11:33.333Z,12.30
2022-09-30T01:11:43.464Z,12.20
2022-09-30T01:11:53.495Z,11.70
2022-09-30T01:12:03.570Z,11.70
2022-09-30T01:12:13.623Z,12.30
2022-09-30T01:12:23.710Z,12.90
2022-09-30T01:12:33.773Z,13.60
2022-09-30T01:12:43.840Z,13.40
2022-09-30T01:12:53.890Z,13.20
2022-09-30T01:13:03.932Z,12.60
2022-09-30T01:13:14.004Z,12.50
2022-09-30T01:13:24.052Z,12.50
2022-09-30T01:13:34.133Z,12.90
2022-09-30T01:13:44.184Z,13.00
2022-09-30T01:13:54.242Z,12.20
2022-09-30T01:14:04.323Z,12.30
2022-09-30T01:14:14.360Z,11.80
2022-09-30T01:14:24.419Z,12.70
2022-09-30T01:14:34.472Z,12.40
2022-09-30T01:14:44.530Z,12.70
2022-09-30T01:14:54.682Z,12.60
2022-09-30T01:15:04.731Z,12.30
2022-09-30T01:15:14.779Z,12.10
2022-09-30T01:15:24.831Z,12.20
2022-09-30T01:15:34.882Z,12.20
2022-09-30T01:15:44.942Z,12.90
2022-09-30T01:15:55.009Z,12.60
2022-09-30T01:16:05.117Z,13.20
2022-09-30T01:16:15.229Z,13.00
2022-09-30T01:16:25.324Z,12.70
2022-09-30T01:16:35.393Z,12.30
2022-09-30T01:16:45.502Z,12.00
2022-09-30T01:16:55.574Z,11.80
2022-09-30T01:17:05.629Z,12.20
2022-09-30T01:17:15.663Z,12.60
2022-09-30T01:17:25.704Z,12.70
2022-09-30T01:17:35.761Z,12.80
2022-09-30T01:17:45.819Z,12.50
2022-09-30T01:17:55.861Z,12.70
2022-09-30T01:18:05.921Z,12.20
2022-09-30T01:18:15.983Z,11.90
2022-09-30T01:18:26.032Z,11.50
2022-09-30T01:18:36.091Z,11.50
2022-09-30T01:18:46.133Z,11.70
2022-09-30T01:18:56.191Z,11.80
2022-09-30T01:19:06.222Z,11.60
2022-09-30T01:19:16.312Z,11.30
2022-09-30T01:19:26.364Z,11.60
2022-09-30T01:19:36.420Z,11.70
2022-09-30T01:19:46.469Z,11.50
2022-09-30T01:19:56.513Z,11.00
2022-09-30T01:20:06.572Z,10.40
2022-09-30T01:20:16.623Z,10.90
2022-09-30T01:20:26.681Z,11.20
2022-09-30T01:20:36.741Z,11.70
2022-09-30T01:20:46.794Z,12.00
2022-09-30T01:20:56.839Z,12.10
2022-09-30T01:21:06.889Z,12.10
2022-09-30T01:21:16.951Z,11.90
2022-09-30T01:21:27.022Z,12.50
2022-09-30T01:21:37.081Z,12.50
2022-09-30T01:21:47.199Z,12.90
2022-09-30T01:21:57.251Z,12.70
2022-09-30T01:22:07.322Z,12.80
2022-09-30T01:22:17.402Z,12.70
2022-09-30T01:22:27.461Z,13.10
2022-09-30T01:22:41.921Z,13.30
2022-09-30T01:22:47.542Z,13.10
2022-09-30T01:22:57.603Z,13.10
2022-09-30T01:23:07.722Z,13.10
2022-09-30T01:23:17.772Z,13.20
2022-09-30T01:23:27.831Z,13.00
2022-09-30T01:23:37.882Z,12.80
2022-09-30T01:23:47.922Z,12.60
2022-09-30T01:23:57.976Z,12.40
2022-09-30T01:24:08.032Z,12.10
2022-09-30T01:24:18.091Z,12.10
2022-09-30T01:24:28.200Z,12.10
2022-09-30T01:24:38.261Z,12.40
2022-09-30T01:24:48.329Z,12.30
2022-09-30T01:24:58.382Z,12.50
2022-09-30T01:25:08.441Z,12.40
2022-09-30T01:25:18.501Z,12.40
2022-09-30T01:25:28.563Z,12.30
2022-09-30T01:25:38.611Z,12.40
2022-09-30T01:25:48.681Z,12.30
2022-09-30T01:25:58.731Z,12.10
2022-09-30T01:26:08.788Z,11.80
2022-09-30T01:26:18.894Z,11.40
2022-09-30T01:26:28.939Z,11.70
2022-09-30T01:26:39.001Z,12.00
2022-09-30T01:26:49.062Z,12.50
2022-09-30T01:26:59.109Z,12.60
2022-09-30T01:27:09.172Z,12.40
2022-09-30T01:27:19.218Z,12.20
2022-09-30T01:27:29.302Z,11.90
2022-09-30T01:27:39.353Z,11.80
2022-09-30T01:27:49.448Z,11.80
2022-09-30T01:27:59.481Z,12.00
2022-09-30T01:28:09.552Z,11.60
2022-09-30T01:28:19.601Z,11.10
2022-09-30T01:28:29.659Z,10.90
2022-09-30T01:28:39.711Z,11.10
2022-09-30T01:28:49.771Z,11.70
2022-09-30T01:28:59.820Z,11.70
2022-09-30T01:29:09.881Z,11.70
2022-09-30T01:29:19.971Z,11.50
2022-09-30T01:29:30.049Z,11.40
2022-09-30T01:29:40.110Z,11.50
2022-09-30T01:29:50.171Z,11.80
2022-09-30T01:30:00.223Z,12.00
2022-09-30T01:30:10.279Z,12.20
2022-09-30T01:30:20.352Z,12.00
2022-09-30T01:30:30.411Z,12.40
2022-09-30T01:30:40.470Z,12.30
2022-09-30T01:30:50.525Z,11.90
2022-09-30T01:31:00.601Z,11.80
2022-09-30T01:31:10.704Z,11.50
2022-09-30T01:31:20.801Z,11.80
2022-09-30T01:31:30.923Z,11.70
2022-09-30T01:31:41.047Z,11.80
2022-09-30T01:31:51.135Z,11.80
2022-09-30T01:32:01.180Z,12.00
2022-09-30T01:32:11.229Z,11.70
2022-09-30T01:32:21.281Z,11.50
2022-09-30T01:32:31.348Z,11.10
2022-09-30T01:32:41.421Z,11.60
2022-09-30T01:32:51.490Z,11.00
2022-09-30T01:33:01.552Z,11.40
2022-09-30T01:33:11.600Z,11.20
2022-09-30T01:33:21.683Z,12.00
2022-09-30T01:33:31.741Z,12.00
2022-09-30T01:33:41.810Z,12.20
2022-09-30T01:33:51.890Z,12.00
2022-09-30T01:34:01.961Z,11.90
2022-09-30T01:34:12.040Z,11.50
2022-09-30T01:34:22.102Z,11.40
2022-09-30T01:34:32.167Z,11.70
2022-09-30T01:34:42.247Z,11.80
2022-09-30T01:34:52.300Z,11.60
2022-09-30T01:35:02.360Z,11.60
2022-09-30T01:35:12.430Z,11.80
2022-09-30T01:35:22.481Z,12.20
2022-09-30T01:35:32.542Z,12.00
2022-09-30T01:35:42.621Z,11.90
2022-09-30T01:35:52.687Z,12.00
2022-09-30T01:36:02.761Z,11.40
2022-09-30T01:36:12.840Z,11.30
2022-09-30T01:36:22.900Z,10.80
2022-09-30T01:36:32.959Z,11.60
2022-09-30T01:36:43.012Z,11.50
2022-09-30T01:36:53.053Z,11.50
2022-09-30T01:37:03.110Z,11.00
2022-09-30T01:37:13.168Z,11.40
2022-09-30T01:37:23.220Z,11.50
2022-09-30T01:37:33.286Z,11.90
2022-09-30T01:37:43.323Z,11.50
2022-09-30T01:37:53.398Z,11.90
2022-09-30T01:38:03.492Z,11.60
2022-09-30T01:38:13.549Z,11.90
2022-09-30T01:38:23.610Z,11.70
2022-09-30T01:38:33.681Z,11.70
2022-09-30T01:38:43.800Z,11.80
2022-09-30T01:38:53.870Z,11.80
2022-09-30T01:39:03.938Z,11.90
2022-09-30T01:39:14.009Z,11.40
2022-09-30T01:39:24.092Z,11.00
2022-09-30T01:39:34.148Z,11.40
2022-09-30T01:39:44.199Z,11.30
2022-09-30T01:39:54.299Z,11.20
2022-09-30T01:40:04.393Z,10.60
2022-09-30T01:40:14.431Z,10.60
2022-09-30T01:40:24.491Z,10.50
2022-09-30T01:40:34.550Z,11.10
2022-09-30T01:40:44.601Z,11.60
2022-09-30T01:40:54.758Z,11.80
2022-09-30T01:41:04.791Z,12.20
2022-09-30T01:41:14.860Z,12.00
2022-09-30T01:41:24.927Z,12.10
2022-09-30T01:41:34.999Z,11.80
2022-09-30T01:41:45.100Z,11.90
2022-09-30T01:41:55.163Z,12.20
2022-09-30T01:42:05.238Z,12.50
2022-09-30T01:42:15.296Z,12.30
2022-09-30T01:42:25.359Z,12.20
2022-09-30T01:42:35.420Z,12.00
2022-09-30T01:42:45.499Z,11.90
2022-09-30T01:42:55.567Z,11.60
2022-09-30T01:43:05.678Z,11.80
2022-09-30T01:43:15.740Z,12.20
2022-09-30T01:43:25.809Z,12.10
2022-09-30T01:43:35.880Z,11.70
2022-09-30T01:43:45.940Z,11.70
2022-09-30T01:43:56.029Z,11.20
2022-09-30T01:44:06.109Z,11.30
2022-09-30T01:44:16.160Z,11.10
2022-09-30T01:44:26.267Z,11.50
2022-09-30T01:44:36.319Z,11.80
2022-09-30T01:44:46.387Z,11.90
2022-09-30T01:44:56.470Z,12.60
2022-09-30T01:45:06.531Z,12.60
2022-09-30T01:45:16.597Z,12.70
2022-09-30T01:45:26.658Z,11.90
2022-09-30T01:45:36.751Z,11.80
2022-09-30T01:45:46.810Z,11.70
2022-09-30T01:45:56.869Z,11.90
2022-09-30T01:46:06.934Z,12.10
2022-09-30T01:46:17.022Z,12.30
2022-09-30T01:46:27.141Z,11.80
2022-09-30T01:46:37.231Z,11.50
2022-09-30T01:46:47.376Z,10.90
2022-09-30T01:46:57.529Z,11.40
2022-09-30T01:47:07.579Z,11.90
2022-09-30T01:47:17.648Z,12.00
2022-09-30T01:47:27.709Z,12.50
2022-09-30T01:47:37.820Z,12.20
2022-09-30T01:47:47.895Z,12.40
2022-09-30T01:47:57.960Z,12.00
2022-09-30T01:48:08.029Z,11.80
2022-09-30T01:48:18.109Z,11.60
2022-09-30T01:48:28.180Z,11.30
2022-09-30T01:48:38.253Z,11.70
2022-09-30T01:48:48.319Z,12.00
2022-09-30T01:48:58.387Z,12.70
2022-09-30T01:49:08.448Z,11.90
2022-09-30T01:49:18.545Z,12.00
2022-09-30T01:49:28.588Z,11.40
2022-09-30T01:49:38.698Z,11.80
2022-09-30T01:49:48.771Z,11.50
2022-09-30T01:49:58.836Z,11.60
2022-09-30T01:50:08.920Z,11.30
2022-09-30T01:50:18.987Z,11.00
2022-09-30T01:50:29.045Z,11.20
2022-09-30T01:50:39.107Z,11.20
2022-09-30T01:50:49.169Z,12.00
2022-09-30T01:50:59.221Z,11.90
2022-09-30T01:51:09.286Z,12.00
2022-09-30T01:51:19.329Z,11.80
2022-09-30T01:51:29.398Z,12.10
2022-09-30T01:51:39.468Z,12.10
2022-09-30T01:51:49.557Z,12.40
2022-09-30T01:51:59.608Z,12.00
2022-09-30T01:52:09.712Z,12.30
2022-09-30T01:52:19.777Z,11.70
2022-09-30T01:52:29.841Z,11.50
2022-09-30T01:52:39.918Z,11.70
2022-09-30T01:52:50.028Z,12.20
2022-09-30T01:53:00.088Z,12.30
2022-09-30T01:53:10.145Z,12.00
2022-09-30T01:53:20.197Z,11.80
2022-09-30T01:53:30.305Z,11.90
2022-09-30T01:53:40.425Z,11.90
2022-09-30T01:53:50.470Z,12.00
2022-09-30T01:54:00.568Z,12.60
2022-09-30T01:54:10.628Z,13.40
2022-09-30T01:54:20.708Z,13.90
2022-09-30T01:54:30.769Z,13.70
2022-09-30T01:54:40.829Z,13.40
2022-09-30T01:54:50.909Z,13.20
2022-09-30T01:55:00.958Z,13.50
2022-09-30T01:55:11.008Z,13.60
2022-09-30T01:55:21.068Z,13.40
2022-09-30T01:55:31.129Z,12.90
2022-09-30T01:55:41.200Z,12.70
2022-09-30T01:56:29.482Z,11.70
2022-09-30T01:56:39.542Z,12.40
2022-09-30T01:56:49.613Z,12.70
2022-09-30T01:56:59.654Z,13.00
2022-09-30T01:57:09.716Z,13.10
2022-09-30T01:57:19.803Z,13.10
2022-09-30T01:57:29.853Z,13.10
2022-09-30T01:57:39.923Z,13.50
2022-09-30T01:57:49.963Z,13.70
2022-09-30T01:58:00.025Z,13.90
2022-09-30T01:58:10.085Z,14.00
2022-09-30T01:58:20.134Z,14.80
2022-09-30T01:58:30.187Z,14.80
2022-09-30T01:58:40.243Z,14.50
2022-09-30T01:58:50.301Z,13.30
2022-09-30T01:59:00.383Z,13.50
2022-09-30T01:59:10.443Z,13.40
2022-09-30T01:59:20.489Z,13.70
2022-09-30T01:59:30.555Z,13.20
2022-09-30T01:59:40.654Z,13.00
2022-09-30T01:59:50.722Z,13.00
2022-09-30T02:00:00.782Z,13.20
2022-09-30T02:00:10.823Z,13.80
2022-09-30T02:00:20.884Z,13.70
2022-09-30T02:00:30.999Z,13.80
2022-09-30T02:00:41.120Z,13.40
2022-09-30T02:00:51.201Z,13.50
2022-09-30T02:01:01.296Z,13.10
2022-09-30T02:01:11.382Z,12.80
2022-09-30T02:01:21.505Z,12.50
2022-09-30T02:01:31.547Z,12.80
2022-09-30T02:01:41.612Z,12.80
2022-09-30T02:01:51.673Z,13.10
2022-09-30T02:02:01.766Z,13.30
2022-09-30T02:02:11.857Z,13.40
2022-09-30T02:02:21.901Z,13.20
2022-09-30T02:02:32.006Z,13.60
2022-09-30T02:02:42.058Z,13.50
2022-09-30T02:02:52.095Z,13.70
2022-09-30T02:03:02.144Z,13.10
2022-09-30T02:03:12.223Z,13.30
2022-09-30T02:03:22.262Z,13.60
2022-09-30T02:03:32.325Z,14.30
2022-09-30T02:03:42.373Z,13.90
2022-09-30T02:03:52.425Z,13.50
2022-09-30T02:04:02.482Z,13.60
2022-09-30T02:04:12.524Z,13.70
2022-09-30T02:04:22.600Z,14.10
2022-09-30T02:04:32.660Z,13.60
2022-09-30T02:04:42.720Z,13.50
2022-09-30T02:04:52.783Z,13.30
2022-09-30T02:05:02.833Z,13.30
2022-09-30T02:05:12.882Z,13.30
2022-09-30T02:05:22.942Z,13.40
2022-09-30T02:05:33.036Z,13.30
2022-09-30T02:05:43.063Z,14.10
2022-09-30T02:05:53.131Z,13.70
2022-09-30T02:06:03.176Z,13.60
2022-09-30T02:06:13.262Z,13.00
2022-09-30T02:06:23.303Z,12.90
2022-09-30T02:06:33.354Z,13.00
2022-09-30T02:06:43.422Z,12.60
2022-09-30T02:06:53.482Z,12.80
2022-09-30T02:07:03.562Z,12.50
2022-09-30T02:07:13.621Z,12.60
2022-09-30T02:07:23.672Z,12.40
2022-09-30T02:07:33.713Z,12.60
2022-09-30T02:07:43.812Z,12.60
2022-09-30T02:07:53.871Z,13.00
2022-09-30T02:08:03.922Z,13.20
2022-09-30T02:08:13.992Z,12.90
2022-09-30T02:08:24.039Z,13.00
2022-09-30T02:08:34.100Z,13.40
2022-09-30T02:08:44.173Z,14.60
2022-09-30T02:08:54.239Z,14.80
2022-09-30T02:09:04.330Z,14.60
2022-09-30T02:09:14.489Z,13.90
2022-09-30T02:09:24.564Z,13.90
2022-09-30T02:09:34.609Z,13.50
2022-09-30T02:09:44.594Z,13.80
2022-09-30T02:09:54.674Z,14.00
2022-09-30T02:10:04.730Z,13.90
2022-09-30T02:10:14.776Z,14.20